Time;durP1;ratioP1;P1;durP2;ratioP2;P2;SDS_P1;SDS_P2;PMS_P1;PMS_P2;Temp;Humidity;BMP_temperature;BMP_pressure;BME280_temperature;BME280_humidity;BME280_pressure;Samples;Min_cycle;Max_cycle;Signal;HPM_P1;HPM_P2
2021/11/18 00:01:52;;;;;;;211.68;93.97;;;;;;;;;;5012981;28;20037;-63
2021/11/18 00:04:19;;;;;;;212.63;92.07;;;;;;;;;;5013095;28;20080;-63
2021/11/18 00:06:48;;;;;;;204.38;90.70;;;;;;;;;;5013136;28;20057;-63
2021/11/18 00:09:15;;;;;;;217.93;89.72;;;;;;;;;;5013010;28;20057;-63
2021/11/18 00:11:41;;;;;;;198.50;88.15;;;;;;;;;;5013084;28;20041;-64
2021/11/18 00:14:07;;;;;;;186.00;85.30;;;;;;;;;;5035918;28;20049;-62
2021/11/18 00:16:34;;;;;;;191.73;83.38;;;;;;;;;;5056785;28;20037;-64
2021/11/18 00:19:00;;;;;;;195.98;84.47;;;;;;;;;;5056683;28;20532;-64
2021/11/18 00:21:29;;;;;;;182.00;86.78;;;;;;;;;;5056314;28;20040;-63
2021/11/18 00:23:56;;;;;;;204.40;92.25;;;;;;;;;;5050195;28;20083;-64
2021/11/18 00:26:26;;;;;;;201.20;90.35;;;;;;;;;;5020863;28;20033;-64
2021/11/18 00:28:52;;;;;;;195.25;92.25;;;;;;;;;;5018543;28;20029;-63
2021/11/18 00:31:23;;;;;;;203.52;92.13;;;;;;;;;;5044809;28;20075;-64
2021/11/18 00:33:50;;;;;;;198.50;92.38;;;;;;;;;;5046571;28;20017;-63
2021/11/18 00:36:16;;;;;;;195.15;89.63;;;;;;;;;;5019421;28;20022;-63
2021/11/18 00:38:43;;;;;;;195.73;89.70;;;;;;;;;;5036648;28;20083;-66
2021/11/18 00:41:10;;;;;;;197.60;90.15;;;;;;;;;;5036301;28;20037;-63
2021/11/18 00:43:36;;;;;;;190.93;91.22;;;;;;;;;;5035994;28;20029;-65
2021/11/18 00:46:05;;;;;;;183.65;87.88;;;;;;;;;;5036301;28;20102;-64
2021/11/18 00:48:31;;;;;;;185.90;88.72;;;;;;;;;;5036225;28;20033;-63
2021/11/18 00:51:00;;;;;;;187.15;87.15;;;;;;;;;;5035902;28;20068;-64
2021/11/18 00:53:26;;;;;;;175.70;85.45;;;;;;;;;;5018392;28;20180;-64
2021/11/18 00:55:53;;;;;;;170.55;82.00;;;;;;;;;;5036065;28;20152;-64
2021/11/18 00:58:19;;;;;;;186.07;85.07;;;;;;;;;;5036041;28;20032;-63
2021/11/18 01:00:46;;;;;;;178.00;83.60;;;;;;;;;;5018089;28;20056;-64
2021/11/18 01:03:13;;;;;;;177.27;83.78;;;;;;;;;;5035944;28;20115;-64
2021/11/18 01:05:42;;;;;;;181.60;84.53;;;;;;;;;;5035834;28;20105;-65
2021/11/18 01:08:09;;;;;;;177.25;82.75;;;;;;;;;;5018122;28;20175;-63
2021/11/18 01:10:38;;;;;;;181.52;83.38;;;;;;;;;;5035533;28;20429;-65
2021/11/18 01:13:05;;;;;;;179.63;81.70;;;;;;;;;;5035384;28;20049;-64
2021/11/18 01:15:33;;;;;;;173.73;81.95;;;;;;;;;;5035715;28;20370;-64
2021/11/18 01:17:59;;;;;;;171.15;82.75;;;;;;;;;;5035382;28;20127;-64
2021/11/18 01:20:25;;;;;;;175.65;82.22;;;;;;;;;;5017769;28;20076;-63
2021/11/18 01:22:53;;;;;;;180.00;83.10;;;;;;;;;;5035585;28;20030;-63
2021/11/18 01:25:19;;;;;;;166.43;80.85;;;;;;;;;;5034757;28;20490;-63
2021/11/18 01:27:45;;;;;;;169.25;79.63;;;;;;;;;;5017514;28;20037;-63
2021/11/18 01:30:14;;;;;;;191.50;86.50;;;;;;;;;;5017671;28;20037;-65
2021/11/18 01:32:41;;;;;;;182.85;82.78;;;;;;;;;;5035098;28;20486;-63
2021/11/18 01:35:07;;;;;;;171.98;81.22;;;;;;;;;;5035182;28;20112;-64
2021/11/18 01:37:33;;;;;;;179.48;81.03;;;;;;;;;;5035281;28;20109;-64
2021/11/18 01:40:00;;;;;;;172.88;79.20;;;;;;;;;;5035250;28;20452;-64
2021/11/18 01:42:27;;;;;;;162.95;78.05;;;;;;;;;;5035147;28;20060;-63
2021/11/18 01:44:54;;;;;;;171.73;80.22;;;;;;;;;;5034843;28;20423;-63
2021/11/18 01:47:21;;;;;;;162.18;78.13;;;;;;;;;;5017312;28;20033;-64
2021/11/18 01:49:48;;;;;;;178.02;79.50;;;;;;;;;;5035358;28;20173;-64
2021/11/18 01:52:17;;;;;;;170.02;78.38;;;;;;;;;;5017220;28;20072;-63
2021/11/18 01:54:44;;;;;;;175.05;79.07;;;;;;;;;;5034984;28;20025;-64
2021/11/18 01:57:12;;;;;;;177.35;82.15;;;;;;;;;;5017118;28;20034;-63
2021/11/18 01:59:41;;;;;;;170.75;78.70;;;;;;;;;;5017052;28;20512;-63
2021/11/18 02:02:08;;;;;;;173.70;82.30;;;;;;;;;;5034779;28;20116;-63
2021/11/18 02:04:34;;;;;;;203.75;87.35;;;;;;;;;;5034789;28;20026;-63
2021/11/18 02:07:03;;;;;;;182.73;82.88;;;;;;;;;;5017002;28;20090;-63
2021/11/18 02:09:36;;;;;;;187.75;86.07;;;;;;;;;;5016932;28;20036;-63
2021/11/18 02:12:08;;;;;;;186.60;84.72;;;;;;;;;;5016964;28;20041;-63
2021/11/18 02:14:36;;;;;;;181.35;83.70;;;;;;;;;;5034931;28;20041;-63
2021/11/18 02:17:02;;;;;;;179.82;83.53;;;;;;;;;;5034584;28;20068;-64
2021/11/18 02:19:29;;;;;;;183.60;84.03;;;;;;;;;;5016685;28;20116;-66
2021/11/18 02:21:55;;;;;;;208.88;91.75;;;;;;;;;;5034569;28;20065;-66
2021/11/18 02:24:29;;;;;;;195.57;88.57;;;;;;;;;;5034394;28;20029;-64
2021/11/18 02:26:55;;;;;;;190.88;87.28;;;;;;;;;;5034420;28;20377;-64
2021/11/18 02:29:26;;;;;;;183.70;87.50;;;;;;;;;;5016517;28;20478;-65
2021/11/18 02:31:57;;;;;;;188.00;86.93;;;;;;;;;;5034645;28;20021;-65
2021/11/18 02:34:31;;;;;;;183.38;84.05;;;;;;;;;;5034496;28;20079;-64
2021/11/18 02:36:57;;;;;;;190.02;86.30;;;;;;;;;;5033756;28;20057;-63
2021/11/18 02:39:23;;;;;;;179.82;84.18;;;;;;;;;;5033636;28;20029;-63
2021/11/18 02:41:49;;;;;;;196.35;88.55;;;;;;;;;;5034029;28;20040;-63
2021/11/18 02:44:15;;;;;;;189.38;87.18;;;;;;;;;;5034267;28;20039;-63
2021/11/18 02:46:42;;;;;;;188.60;88.97;;;;;;;;;;5034233;28;20422;-63
2021/11/18 02:49:08;;;;;;;183.82;86.05;;;;;;;;;;5016162;28;20068;-62
2021/11/18 02:51:34;;;;;;;182.05;85.50;;;;;;;;;;5033926;28;20113;-64
2021/11/18 02:54:01;;;;;;;186.32;88.55;;;;;;;;;;5033860;28;20029;-62
2021/11/18 02:56:29;;;;;;;188.48;88.18;;;;;;;;;;5016000;28;20117;-63
2021/11/18 02:58:56;;;;;;;185.30;89.15;;;;;;;;;;5033827;28;20029;-63
2021/11/18 03:01:30;;;;;;;203.00;90.88;;;;;;;;;;5033658;28;20079;-63
2021/11/18 03:03:59;;;;;;;206.10;92.78;;;;;;;;;;5033683;28;20108;-63
2021/11/18 03:06:25;;;;;;;199.35;88.38;;;;;;;;;;5016140;28;20425;-63
2021/11/18 03:08:51;;;;;;;183.80;90.20;;;;;;;;;;5033584;28;20171;-62
2021/11/18 03:11:19;;;;;;;201.73;90.97;;;;;;;;;;5033582;28;20104;-62
2021/11/18 03:13:45;;;;;;;188.77;90.18;;;;;;;;;;5033155;28;20056;-63
2021/11/18 03:16:12;;;;;;;186.48;87.15;;;;;;;;;;5033758;28;20104;-63
2021/11/18 03:18:39;;;;;;;181.52;87.07;;;;;;;;;;5033432;28;20033;-63
2021/11/18 03:21:07;;;;;;;176.52;87.78;;;;;;;;;;5033333;28;20033;-63
2021/11/18 03:23:33;;;;;;;176.32;84.97;;;;;;;;;;5033382;28;20091;-63
2021/11/18 03:26:00;;;;;;;183.20;87.10;;;;;;;;;;5033288;28;20061;-62
2021/11/18 03:28:27;;;;;;;189.75;88.50;;;;;;;;;;5033541;28;20053;-63
2021/11/18 03:30:54;;;;;;;179.18;87.10;;;;;;;;;;5015544;28;20454;-63
2021/11/18 03:33:31;;;;;;;184.38;85.68;;;;;;;;;;5033208;28;20056;-62
2021/11/18 03:35:57;;;;;;;166.98;83.32;;;;;;;;;;5033204;28;20486;-63
2021/11/18 03:38:26;;;;;;;188.05;86.20;;;;;;;;;;5032901;28;20079;-62
2021/11/18 03:40:52;;;;;;;165.75;85.05;;;;;;;;;;5033024;28;20065;-63
2021/11/18 03:43:21;;;;;;;178.10;85.38;;;;;;;;;;5032949;28;20548;-62
2021/11/18 03:45:47;;;;;;;178.02;85.72;;;;;;;;;;5032918;28;20025;-63
2021/11/18 03:48:19;;;;;;;177.05;85.40;;;;;;;;;;5032863;28;20541;-62
2021/11/18 03:50:46;;;;;;;171.43;82.38;;;;;;;;;;5032950;28;20021;-62
2021/11/18 03:53:12;;;;;;;177.15;84.72;;;;;;;;;;5032960;28;20018;-62
2021/11/18 03:55:41;;;;;;;170.80;83.93;;;;;;;;;;5015249;28;20470;-63
2021/11/18 03:58:08;;;;;;;164.50;83.07;;;;;;;;;;5015191;28;20032;-63
2021/11/18 04:00:35;;;;;;;172.90;83.65;;;;;;;;;;5033099;28;20573;-65
2021/11/18 04:03:03;;;;;;;168.00;83.15;;;;;;;;;;5015124;28;20025;-64
2021/11/18 04:05:30;;;;;;;166.07;83.82;;;;;;;;;;5032930;28;20026;-64
2021/11/18 04:07:57;;;;;;;168.60;82.45;;;;;;;;;;5032873;28;20057;-64
2021/11/18 04:10:27;;;;;;;171.55;82.45;;;;;;;;;;5033095;28;20030;-63
2021/11/18 04:12:53;;;;;;;166.95;84.28;;;;;;;;;;5032462;28;20085;-63
2021/11/18 04:15:21;;;;;;;165.43;83.78;;;;;;;;;;5033065;28;20033;-64
2021/11/18 04:17:48;;;;;;;164.88;82.68;;;;;;;;;;5032851;28;20026;-63
2021/11/18 04:20:15;;;;;;;169.95;83.45;;;;;;;;;;5032747;28;20021;-64
2021/11/18 04:22:41;;;;;;;156.98;82.10;;;;;;;;;;5032673;28;20112;-64
2021/11/18 04:25:09;;;;;;;163.80;82.75;;;;;;;;;;5032453;28;20049;-63
2021/11/18 04:27:36;;;;;;;175.60;84.72;;;;;;;;;;5032697;28;20472;-63
2021/11/18 04:30:04;;;;;;;163.10;80.47;;;;;;;;;;5032686;28;20029;-62
2021/11/18 04:32:30;;;;;;;159.77;82.00;;;;;;;;;;5032642;28;20026;-63
2021/11/18 04:34:56;;;;;;;163.02;82.60;;;;;;;;;;5032852;28;20033;-64
2021/11/18 04:37:23;;;;;;;159.05;82.40;;;;;;;;;;5032450;28;20072;-63
2021/11/18 04:39:50;;;;;;;158.15;79.05;;;;;;;;;;5032620;28;20435;-63
2021/11/18 04:42:16;;;;;;;150.57;77.72;;;;;;;;;;5032454;28;20120;-62
2021/11/18 04:44:43;;;;;;;157.45;77.70;;;;;;;;;;5032831;28;20470;-63
2021/11/18 04:47:13;;;;;;;144.23;74.10;;;;;;;;;;5032495;28;20105;-63
2021/11/18 04:49:40;;;;;;;147.60;76.30;;;;;;;;;;5032264;28;20552;-63
2021/11/18 04:52:07;;;;;;;141.65;74.05;;;;;;;;;;5032474;28;20112;-62
2021/11/18 04:54:34;;;;;;;149.70;76.22;;;;;;;;;;5032441;28;20029;-63
2021/11/18 04:57:00;;;;;;;146.95;77.18;;;;;;;;;;5032106;28;20439;-63
2021/11/18 04:59:27;;;;;;;145.60;74.43;;;;;;;;;;5032446;28;20057;-63
2021/11/18 05:01:53;;;;;;;141.27;72.13;;;;;;;;;;5034418;28;20580;-63
2021/11/18 05:04:19;;;;;;;146.50;76.75;;;;;;;;;;5035664;28;20033;-63
2021/11/18 05:06:46;;;;;;;146.18;76.80;;;;;;;;;;5035914;28;20116;-62
2021/11/18 05:09:13;;;;;;;147.98;74.25;;;;;;;;;;5018035;28;20544;-62
2021/11/18 05:11:40;;;;;;;153.68;77.15;;;;;;;;;;5017999;28;20033;-62
2021/11/18 05:14:07;;;;;;;147.25;74.68;;;;;;;;;;5035772;28;20053;-63
2021/11/18 05:16:34;;;;;;;145.63;75.15;;;;;;;;;;5035695;28;20373;-63
2021/11/18 05:19:00;;;;;;;138.30;71.80;;;;;;;;;;5017917;28;20026;-63
2021/11/18 05:21:28;;;;;;;147.88;78.47;;;;;;;;;;5035568;28;20060;-63
2021/11/18 05:23:55;;;;;;;137.40;74.47;;;;;;;;;;5035606;28;20030;-63
2021/11/18 05:26:21;;;;;;;144.45;74.38;;;;;;;;;;5035825;28;20562;-63
2021/11/18 05:28:48;;;;;;;140.00;73.72;;;;;;;;;;5017639;28;20065;-64
2021/11/18 05:31:15;;;;;;;143.60;73.50;;;;;;;;;;5035482;28;20060;-63
2021/11/18 05:33:42;;;;;;;144.07;76.95;;;;;;;;;;5017595;28;20057;-64
2021/11/18 05:36:09;;;;;;;145.38;73.70;;;;;;;;;;5035078;28;20026;-64
2021/11/18 05:38:35;;;;;;;145.25;74.50;;;;;;;;;;5017515;28;20026;-63
2021/11/18 05:41:22;;;;;;;143.32;75.45;;;;;;;;;;5035245;28;20033;-64
2021/11/18 05:43:49;;;;;;;141.52;70.93;;;;;;;;;;5016987;28;20488;-63
2021/11/18 05:46:16;;;;;;;143.50;73.63;;;;;;;;;;5035130;28;20036;-64
2021/11/18 05:48:43;;;;;;;145.50;74.60;;;;;;;;;;5035192;28;20451;-63
2021/11/18 05:51:10;;;;;;;148.10;75.95;;;;;;;;;;5035084;28;20060;-63
2021/11/18 05:53:38;;;;;;;146.18;74.38;;;;;;;;;;5035030;28;20075;-63
2021/11/18 05:56:06;;;;;;;154.18;77.10;;;;;;;;;;5034694;28;20025;-62
2021/11/18 05:58:32;;;;;;;148.82;75.47;;;;;;;;;;5017044;28;20034;-62
2021/11/18 06:00:59;;;;;;;147.60;74.38;;;;;;;;;;5034839;28;20033;-63
2021/11/18 06:03:25;;;;;;;153.25;75.97;;;;;;;;;;5034857;28;20366;-63
2021/11/18 06:05:51;;;;;;;161.55;77.80;;;;;;;;;;5034780;28;20025;-63
2021/11/18 06:08:18;;;;;;;151.88;75.93;;;;;;;;;;5017020;28;20107;-63
2021/11/18 06:10:44;;;;;;;151.68;75.65;;;;;;;;;;5034720;28;20072;-63
2021/11/18 06:13:10;;;;;;;227.82;115.35;;;;;;;;;;5034084;28;20045;-63
2021/11/18 06:15:37;;;;;;;155.57;78.05;;;;;;;;;;5034296;28;20029;-63
2021/11/18 06:18:03;;;;;;;141.20;72.85;;;;;;;;;;5016762;28;20032;-63
2021/11/18 06:20:30;;;;;;;141.52;71.20;;;;;;;;;;5034567;28;20091;-63
2021/11/18 06:22:56;;;;;;;140.35;69.53;;;;;;;;;;5034361;28;20033;-62
2021/11/18 06:25:24;;;;;;;137.25;67.70;;;;;;;;;;5034384;28;20083;-62
2021/11/18 06:27:51;;;;;;;163.48;78.05;;;;;;;;;;5035771;28;20029;-63
2021/11/18 06:30:23;;;;;;;158.45;76.95;;;;;;;;;;5053173;28;20021;-62
2021/11/18 06:32:50;;;;;;;131.93;66.57;;;;;;;;;;5053769;28;20429;-62
2021/11/18 06:35:16;;;;;;;132.75;63.50;;;;;;;;;;5053660;28;20751;-63
2021/11/18 06:37:43;;;;;;;135.98;67.88;;;;;;;;;;5053824;28;20032;-60
2021/11/18 06:40:11;;;;;;;138.73;70.78;;;;;;;;;;5053488;28;20478;-61
2021/11/18 06:42:38;;;;;;;134.20;67.30;;;;;;;;;;5053506;28;20488;-60
2021/11/18 06:45:04;;;;;;;132.95;64.80;;;;;;;;;;5053420;28;20105;-61
2021/11/18 06:47:31;;;;;;;139.32;67.15;;;;;;;;;;5053942;28;20037;-61
2021/11/18 06:49:57;;;;;;;137.68;68.75;;;;;;;;;;5053498;28;20029;-61
2021/11/18 06:52:23;;;;;;;141.52;71.53;;;;;;;;;;5053216;28;20362;-60
2021/11/18 06:54:50;;;;;;;150.38;74.45;;;;;;;;;;5035570;28;20075;-61
2021/11/18 06:57:17;;;;;;;198.85;96.28;;;;;;;;;;5053146;28;20018;-61
2021/11/18 06:59:44;;;;;;;149.75;71.88;;;;;;;;;;5053362;28;20052;-61
2021/11/18 07:02:11;;;;;;;140.95;66.93;;;;;;;;;;5053377;28;20131;-61
2021/11/18 07:04:37;;;;;;;155.35;71.72;;;;;;;;;;5053315;28;20056;-61
2021/11/18 07:07:03;;;;;;;153.05;74.28;;;;;;;;;;5053415;28;20017;-62
2021/11/18 07:09:29;;;;;;;151.48;72.35;;;;;;;;;;5035004;28;20060;-61
2021/11/18 07:11:56;;;;;;;142.68;74.05;;;;;;;;;;5053127;28;20108;-62
2021/11/18 07:14:23;;;;;;;149.05;75.93;;;;;;;;;;5034859;28;20049;-61
2021/11/18 07:16:51;;;;;;;135.55;72.30;;;;;;;;;;5035118;28;20025;-63
2021/11/18 07:19:18;;;;;;;149.40;76.70;;;;;;;;;;5053216;28;20047;-62
2021/11/18 07:21:45;;;;;;;148.23;71.85;;;;;;;;;;5035042;28;20044;-61
2021/11/18 07:24:13;;;;;;;145.60;72.25;;;;;;;;;;5052130;28;20017;-63
2021/11/18 07:26:39;;;;;;;143.00;69.82;;;;;;;;;;5052964;28;20102;-62
2021/11/18 07:29:07;;;;;;;142.65;70.00;;;;;;;;;;5052744;28;20024;-62
2021/11/18 07:31:34;;;;;;;138.27;68.93;;;;;;;;;;5035012;28;20530;-61
2021/11/18 07:34:00;;;;;;;130.57;67.00;;;;;;;;;;5035062;28;20393;-62
2021/11/18 07:36:26;;;;;;;137.43;66.28;;;;;;;;;;5052968;28;20060;-61
2021/11/18 07:38:53;;;;;;;134.77;66.43;;;;;;;;;;5052765;28;20035;-62
2021/11/18 07:41:19;;;;;;;136.40;67.25;;;;;;;;;;5052797;28;20108;-61
2021/11/18 07:43:46;;;;;;;137.15;66.30;;;;;;;;;;5052943;28;20017;-62
2021/11/18 07:46:15;;;;;;;144.65;71.57;;;;;;;;;;5053006;28;20040;-62
2021/11/18 07:48:42;;;;;;;132.23;65.43;;;;;;;;;;5051800;28;20036;-62
2021/11/18 07:51:10;;;;;;;125.78;63.90;;;;;;;;;;5052750;28;20092;-62
2021/11/18 07:53:36;;;;;;;126.43;64.22;;;;;;;;;;5052026;28;20028;-62
2021/11/18 07:56:03;;;;;;;129.43;65.28;;;;;;;;;;5052935;28;20347;-61
2021/11/18 07:58:29;;;;;;;125.60;61.22;;;;;;;;;;5052886;28;20032;-61
2021/11/18 08:00:56;;;;;;;134.82;63.58;;;;;;;;;;5052812;28;20025;-62
2021/11/18 08:03:23;;;;;;;127.90;63.42;;;;;;;;;;5052832;28;20040;-62
2021/11/18 08:05:49;;;;;;;120.32;62.97;;;;;;;;;;5053010;28;20021;-62
2021/11/18 08:08:15;;;;;;;119.47;61.15;;;;;;;;;;5034709;28;20041;-61
2021/11/18 08:10:42;;;;;;;121.95;62.72;;;;;;;;;;5052506;28;20082;-62
2021/11/18 08:13:08;;;;;;;108.88;57.08;;;;;;;;;;5052554;28;20133;-61
2021/11/18 08:15:34;;;;;;;117.03;60.28;;;;;;;;;;5052949;28;20021;-61
2021/11/18 08:18:01;;;;;;;127.50;63.22;;;;;;;;;;5052682;28;20025;-61
2021/11/18 08:20:27;;;;;;;111.72;59.40;;;;;;;;;;5052701;28;20021;-61
2021/11/18 08:22:54;;;;;;;121.40;62.28;;;;;;;;;;5052260;28;20491;-63
2021/11/18 08:25:22;;;;;;;120.28;60.40;;;;;;;;;;5052629;28;20029;-63
2021/11/18 08:27:56;;;;;;;109.50;59.00;;;;;;;;;;5052570;28;20025;-62
2021/11/18 08:30:23;;;;;;;113.45;60.70;;;;;;;;;;5034567;28;20051;-65
2021/11/18 08:32:51;;;;;;;104.10;58.92;;;;;;;;;;5034565;28;20048;-63
2021/11/18 08:35:23;;;;;;;113.93;59.65;;;;;;;;;;5035814;28;20029;-62
2021/11/18 08:37:50;;;;;;;112.18;61.65;;;;;;;;;;5056356;28;20028;-63
2021/11/18 08:40:17;;;;;;;112.85;61.35;;;;;;;;;;5038377;28;20091;-62
2021/11/18 08:42:44;;;;;;;110.93;59.83;;;;;;;;;;5056135;28;20120;-62
2021/11/18 08:45:11;;;;;;;118.10;62.63;;;;;;;;;;5056266;28;20374;-63
2021/11/18 08:47:38;;;;;;;117.18;61.67;;;;;;;;;;5038172;28;20029;-63
2021/11/18 08:50:06;;;;;;;114.20;60.30;;;;;;;;;;5038216;28;20146;-66
2021/11/18 08:52:33;;;;;;;117.78;59.00;;;;;;;;;;5032657;28;20540;-63
2021/11/18 08:55:00;;;;;;;99.85;56.05;;;;;;;;;;5051831;28;20084;-63
2021/11/18 08:57:27;;;;;;;108.05;57.75;;;;;;;;;;5055851;28;20092;-64
2021/11/18 08:59:53;;;;;;;113.60;63.10;;;;;;;;;;5055733;28;20151;-65
2021/11/18 09:02:23;;;;;;;105.55;60.13;;;;;;;;;;5055583;28;20064;-64
2021/11/18 09:04:49;;;;;;;109.63;59.88;;;;;;;;;;5037826;28;20119;-63
2021/11/18 09:07:15;;;;;;;103.63;57.15;;;;;;;;;;5037702;28;20377;-64
2021/11/18 09:09:42;;;;;;;99.60;55.33;;;;;;;;;;5037624;28;20389;-63
2021/11/18 09:12:08;;;;;;;109.60;59.38;;;;;;;;;;5055204;28;20040;-62
2021/11/18 09:14:36;;;;;;;109.18;57.13;;;;;;;;;;5055445;28;20037;-63
2021/11/18 09:17:03;;;;;;;114.22;61.67;;;;;;;;;;5055458;28;20025;-62
2021/11/18 09:19:31;;;;;;;112.15;57.63;;;;;;;;;;5046436;28;20029;-63
2021/11/18 09:21:59;;;;;;;93.45;53.63;;;;;;;;;;5035372;28;20537;-63
2021/11/18 09:24:28;;;;;;;97.28;51.88;;;;;;;;;;5017685;28;20463;-62
2021/11/18 09:26:56;;;;;;;97.88;54.83;;;;;;;;;;5017609;28;20557;-62
2021/11/18 09:29:23;;;;;;;141.13;70.07;;;;;;;;;;5035379;28;20116;-61
2021/11/18 09:31:49;;;;;;;95.70;52.83;;;;;;;;;;5035308;28;20041;-63
2021/11/18 09:34:15;;;;;;;94.13;51.33;;;;;;;;;;5017556;28;20064;-64
2021/11/18 09:36:43;;;;;;;97.93;53.85;;;;;;;;;;5035183;28;20467;-62
2021/11/18 09:39:10;;;;;;;87.57;50.30;;;;;;;;;;5035433;28;20049;-62
2021/11/18 09:41:46;;;;;;;97.88;52.63;;;;;;;;;;5017093;28;20520;-63
2021/11/18 09:44:31;;;;;;;105.70;54.00;;;;;;;;;;5035164;28;20085;-61
2021/11/18 09:46:57;;;;;;;96.00;52.97;;;;;;;;;;5034436;28;20029;-63
2021/11/18 09:49:39;;;;;;;99.15;51.08;;;;;;;;;;5034691;28;20386;-62
2021/11/18 09:52:18;;;;;;;89.60;49.65;;;;;;;;;;5017028;28;20029;-61
2021/11/18 09:54:49;;;;;;;89.22;46.80;;;;;;;;;;5034636;28;20056;-63
2021/11/18 09:57:19;;;;;;;84.85;45.30;;;;;;;;;;5016996;28;20356;-63
2021/11/18 10:00:06;;;;;;;83.38;44.85;;;;;;;;;;5016917;28;20377;-63
2021/11/18 10:02:49;;;;;;;88.03;44.30;;;;;;;;;;5020581;28;20045;-62
2021/11/18 10:05:27;;;;;;;80.95;45.22;;;;;;;;;;5034892;28;20026;-62
2021/11/18 10:08:02;;;;;;;83.90;45.30;;;;;;;;;;5034455;28;20021;-62
2021/11/18 10:10:36;;;;;;;85.03;43.67;;;;;;;;;;5034875;28;20060;-61
2021/11/18 10:13:21;;;;;;;82.63;44.20;;;;;;;;;;5034340;28;20057;-60
2021/11/18 10:15:49;;;;;;;80.32;44.33;;;;;;;;;;5016456;28;20026;-60
2021/11/18 10:18:16;;;;;;;97.45;47.13;;;;;;;;;;5016612;28;20029;-62
2021/11/18 10:20:43;;;;;;;98.05;46.10;;;;;;;;;;5034648;28;20041;-60
2021/11/18 10:23:15;;;;;;;78.97;43.63;;;;;;;;;;5016186;28;20395;-61
2021/11/18 10:25:44;;;;;;;82.35;45.97;;;;;;;;;;5016696;28;20029;-62
2021/11/18 10:28:22;;;;;;;81.63;44.13;;;;;;;;;;5033627;28;20035;-61
2021/11/18 10:30:56;;;;;;;90.85;48.80;;;;;;;;;;5033686;28;20033;-63
2021/11/18 10:33:27;;;;;;;77.53;42.80;;;;;;;;;;5034202;28;20029;-62
2021/11/18 10:35:57;;;;;;;71.80;39.63;;;;;;;;;;5033861;28;20021;-63
2021/11/18 10:38:25;;;;;;;75.57;39.45;;;;;;;;;;5015829;28;20060;-61
2021/11/18 10:40:51;;;;;;;78.10;39.22;;;;;;;;;;5033929;28;20096;-63
2021/11/18 10:43:18;;;;;;;64.03;34.80;;;;;;;;;;5040340;28;20144;-61
2021/11/18 10:45:46;;;;;;;77.20;38.63;;;;;;;;;;5032894;28;20133;-62
2021/11/18 10:48:18;;;;;;;76.47;40.75;;;;;;;;;;5033818;28;20057;-63
2021/11/18 10:50:51;;;;;;;67.25;34.67;;;;;;;;;;5033961;28;20167;-64
2021/11/18 10:53:22;;;;;;;72.35;36.45;;;;;;;;;;5016059;28;20479;-64
2021/11/18 10:56:00;;;;;;;59.95;32.97;;;;;;;;;;5033891;28;20025;-63
2021/11/18 10:58:27;;;;;;;53.65;30.85;;;;;;;;;;5015104;28;20462;-62
2021/11/18 11:00:55;;;;;;;62.40;31.55;;;;;;;;;;5033187;28;20112;-62
2021/11/18 11:03:27;;;;;;;56.15;28.98;;;;;;;;;;5014980;28;20029;-64
2021/11/18 11:06:13;;;;;;;58.33;28.58;;;;;;;;;;5033322;28;20026;-64
2021/11/18 11:08:41;;;;;;;56.00;30.08;;;;;;;;;;5033327;28;20049;-64
2021/11/18 11:11:27;;;;;;;52.33;27.77;;;;;;;;;;5033592;28;20060;-63
2021/11/18 11:14:14;;;;;;;55.15;30.35;;;;;;;;;;5033043;28;20037;-64
2021/11/18 11:16:43;;;;;;;56.85;28.58;;;;;;;;;;5015721;28;20052;-65
2021/11/18 11:19:16;;;;;;;51.47;28.35;;;;;;;;;;5033477;28;20029;-65
2021/11/18 11:21:48;;;;;;;56.10;29.05;;;;;;;;;;5033333;28;20064;-65
2021/11/18 11:24:35;;;;;;;54.78;29.15;;;;;;;;;;5033628;28;20116;-64
2021/11/18 11:27:20;;;;;;;48.05;27.00;;;;;;;;;;5015664;28;20593;-63
2021/11/18 11:29:57;;;;;;;50.00;27.25;;;;;;;;;;5033270;28;20112;-64
2021/11/18 11:32:46;;;;;;;44.97;24.85;;;;;;;;;;5033247;28;20037;-64
2021/11/18 11:35:12;;;;;;;49.58;27.35;;;;;;;;;;5033249;28;20351;-63
2021/11/18 11:37:38;;;;;;;53.65;28.92;;;;;;;;;;5033094;28;20492;-63
2021/11/18 11:40:06;;;;;;;51.72;28.00;;;;;;;;;;5015304;28;20540;-64
2021/11/18 11:42:42;;;;;;;56.75;29.20;;;;;;;;;;5015221;28;20084;-62
2021/11/18 11:45:25;;;;;;;58.33;31.33;;;;;;;;;;5033185;28;20501;-64
2021/11/18 11:47:54;;;;;;;52.13;27.58;;;;;;;;;;5032910;28;20071;-62
2021/11/18 11:50:21;;;;;;;54.30;25.50;;;;;;;;;;5015155;28;20027;-63
2021/11/18 11:53:01;;;;;;;63.30;32.13;;;;;;;;;;5042469;28;20029;-62
2021/11/18 11:55:27;;;;;;;57.58;30.05;;;;;;;;;;5034826;28;20393;-61
2021/11/18 11:58:12;;;;;;;48.95;27.20;;;;;;;;;;5052595;28;20061;-62
2021/11/18 12:01:02;;;;;;;50.95;24.98;;;;;;;;;;5052385;28;20428;-62
2021/11/18 12:03:29;;;;;;;50.22;26.65;;;;;;;;;;5006180;28;20049;-63
2021/11/18 12:05:55;;;;;;;52.03;26.85;;;;;;;;;;5052717;28;20067;-65
2021/11/18 12:08:36;;;;;;;50.45;27.80;;;;;;;;;;5034817;28;20025;-66
2021/11/18 12:14:16;;;;;;;45.83;25.17;;;;;;;;;;5056722;28;20500;-65
2021/11/18 12:16:48;;;;;;;45.65;25.20;;;;;;;;;;5056756;28;20091;-63
2021/11/18 12:19:17;;;;;;;45.90;25.08;;;;;;;;;;5038709;28;20405;-65
2021/11/18 12:21:44;;;;;;;39.13;23.75;;;;;;;;;;5056286;28;20041;-67
2021/11/18 12:24:13;;;;;;;43.78;25.15;;;;;;;;;;5056572;28;20142;-63
2021/11/18 12:26:45;;;;;;;40.42;23.52;;;;;;;;;;5056516;28;20025;-64
2021/11/18 12:29:23;;;;;;;44.47;25.33;;;;;;;;;;5056450;28;20064;-64
2021/11/18 12:32:08;;;;;;;43.22;24.48;;;;;;;;;;5038056;28;20394;-63
2021/11/18 12:34:53;;;;;;;46.88;23.25;;;;;;;;;;5038299;28;20021;-64
2021/11/18 12:37:31;;;;;;;41.53;24.60;;;;;;;;;;5056368;28;20021;-63
2021/11/18 12:40:12;;;;;;;38.85;24.23;;;;;;;;;;5056387;28;20040;-62
2021/11/18 12:42:47;;;;;;;49.88;26.48;;;;;;;;;;5056244;28;20086;-64
2021/11/18 12:45:13;;;;;;;49.92;26.85;;;;;;;;;;5056217;28;20017;-64
2021/11/18 12:47:49;;;;;;;46.95;26.77;;;;;;;;;;5056441;28;20111;-62
2021/11/18 12:50:29;;;;;;;55.70;26.92;;;;;;;;;;5056046;28;20528;-66
2021/11/18 12:53:11;;;;;;;45.67;25.80;;;;;;;;;;5056138;28;20020;-64
2021/11/18 12:55:58;;;;;;;49.58;27.30;;;;;;;;;;5038200;28;20117;-64
2021/11/18 12:58:28;;;;;;;45.67;26.65;;;;;;;;;;5055998;28;20013;-63
2021/11/18 13:00:55;;;;;;;51.03;26.92;;;;;;;;;;5055889;28;20477;-62
2021/11/18 13:03:54;;;;;;;43.13;23.38;;;;;;;;;;5055957;28;20025;-64
2021/11/18 13:06:29;;;;;;;42.33;24.30;;;;;;;;;;4955337;29;20047;-62
2021/11/18 13:09:00;;;;;;;52.78;24.48;;;;;;;;;;4955157;29;20039;-64
2021/11/18 13:11:26;;;;;;;35.83;22.05;;;;;;;;;;4955288;29;20526;-64
2021/11/18 13:14:13;;;;;;;47.00;24.83;;;;;;;;;;4954982;29;20146;-62
2021/11/18 13:16:48;;;;;;;58.60;28.77;;;;;;;;;;4955207;29;20218;-64
2021/11/18 13:19:33;;;;;;;59.72;32.28;;;;;;;;;;4955080;29;20130;-63
2021/11/18 13:21:59;;;;;;;54.40;28.42;;;;;;;;;;4937942;29;20551;-63
2021/11/18 13:24:41;;;;;;;45.88;25.85;;;;;;;;;;4938892;29;20155;-65
2021/11/18 13:27:11;;;;;;;58.60;31.00;;;;;;;;;;4955024;29;20106;-64
2021/11/18 13:29:44;;;;;;;61.30;31.75;;;;;;;;;;4938887;29;20027;-64
2021/11/18 13:32:12;;;;;;;51.00;27.88;;;;;;;;;;4955048;29;20051;-62
2021/11/18 13:34:42;;;;;;;58.80;32.25;;;;;;;;;;4938585;29;20038;-64
2021/11/18 13:37:14;;;;;;;59.75;28.95;;;;;;;;;;4954954;29;20027;-64
2021/11/18 13:39:52;;;;;;;42.13;24.83;;;;;;;;;;4954807;29;20171;-64
2021/11/18 13:42:29;;;;;;;45.33;26.23;;;;;;;;;;5000708;28;20398;-65
2021/11/18 13:45:14;;;;;;;47.15;26.70;;;;;;;;;;5035164;28;20021;-63
2021/11/18 13:47:52;;;;;;;38.55;21.30;;;;;;;;;;5033931;28;20091;-64
2021/11/18 13:50:21;;;;;;;46.47;24.17;;;;;;;;;;5035182;28;20021;-63
2021/11/18 13:52:57;;;;;;;43.80;25.65;;;;;;;;;;5035358;28;20113;-64
2021/11/18 13:55:31;;;;;;;44.33;25.58;;;;;;;;;;5035256;28;20112;-64
2021/11/18 13:57:59;;;;;;;41.40;22.50;;;;;;;;;;5034996;28;20470;-62
2021/11/18 14:00:28;;;;;;;38.90;22.48;;;;;;;;;;5034883;28;20109;-62
2021/11/18 14:03:02;;;;;;;47.13;25.35;;;;;;;;;;5034752;28;20033;-64
2021/11/18 14:05:29;;;;;;;45.92;26.63;;;;;;;;;;5034786;28;20036;-63
2021/11/18 14:08:13;;;;;;;49.20;25.73;;;;;;;;;;5034673;28;20100;-63
2021/11/18 14:10:42;;;;;;;47.60;27.13;;;;;;;;;;5034713;28;20061;-63
2021/11/18 14:13:27;;;;;;;53.42;28.17;;;;;;;;;;5042794;28;20060;-64
2021/11/18 14:15:56;;;;;;;54.00;28.10;;;;;;;;;;5054491;28;20021;-64
2021/11/18 14:18:24;;;;;;;55.92;32.28;;;;;;;;;;5054371;28;20339;-64
2021/11/18 14:21:05;;;;;;;51.30;28.92;;;;;;;;;;5054388;28;20470;-65
2021/11/18 14:23:47;;;;;;;49.80;27.85;;;;;;;;;;5054709;28;20032;-66
2021/11/18 14:26:17;;;;;;;55.20;31.98;;;;;;;;;;5054325;28;20063;-63